WAT3465 EDDC-LZKZ
Flight info
| Callsign | WAT3465 |
|---|---|
| Flight time | 1h 0m |
| Altitude | 35000 |
| Route | HDO1W HDO DCT EVIKU DCT MAKAL DCT PPD R232 MARKA |
| Aircraft | A320/M-SDE3FGHIRWY/LB1 |
Departure
| Time | 2026-04-22 17:46 |
|---|---|
| Airport | Dresden Airport (EDDC) |
Arrival
| Time | 2026-04-22 18:46 |
|---|---|
| Airport | Košice International Airport (LZKZ) |
| Time | Latitude | Longitude | Altitude | Speed | Heading |
|---|---|---|---|---|---|
| 2026-04-22 17:19 | 51.12595 | 13.76604 | 711 ft | 0 kts | 221° |
| 2026-04-22 17:34 | 51.12598 | 13.76607 | 716 ft | 2 kts | 221° |
| 2026-04-22 17:34 | 51.12611 | 13.76627 | 716 ft | 3 kts | 227° |
| 2026-04-22 17:35 | 51.12624 | 13.76651 | 716 ft | 3 kts | 237° |
| 2026-04-22 17:35 | 51.12633 | 13.76678 | 715 ft | 3 kts | 257° |
| 2026-04-22 17:35 | 51.12634 | 13.76705 | 715 ft | 2 kts | 303° |
| 2026-04-22 17:35 | 51.12632 | 13.76711 | 714 ft | 0 kts | 310° |
| 2026-04-22 17:38 | 51.12638 | 13.76700 | 716 ft | 2 kts | 308° |
| 2026-04-22 17:38 | 51.12650 | 13.76665 | 712 ft | 5 kts | 301° |
| 2026-04-22 17:39 | 51.12680 | 13.76609 | 711 ft | 7 kts | 311° |
| 2026-04-22 17:39 | 51.12718 | 13.76540 | 711 ft | 10 kts | 311° |
| 2026-04-22 17:39 | 51.12793 | 13.76417 | 711 ft | 7 kts | 341° |
| 2026-04-22 17:40 | 51.12833 | 13.76452 | 713 ft | 8 kts | 39° |
| 2026-04-22 17:40 | 51.12900 | 13.76544 | 712 ft | 15 kts | 41° |
| 2026-04-22 17:40 | 51.12979 | 13.76653 | 711 ft | 15 kts | 40° |
| 2026-04-22 17:40 | 51.13064 | 13.76768 | 713 ft | 17 kts | 40° |
| 2026-04-22 17:41 | 51.13157 | 13.76898 | 715 ft | 19 kts | 41° |
| 2026-04-22 17:41 | 51.13263 | 13.77042 | 712 ft | 21 kts | 40° |
| 2026-04-22 17:41 | 51.13377 | 13.77199 | 715 ft | 21 kts | 41° |
| 2026-04-22 17:41 | 51.13490 | 13.77354 | 711 ft | 22 kts | 40° |
| 2026-04-22 17:42 | 51.13610 | 13.77519 | 714 ft | 24 kts | 41° |
| 2026-04-22 17:42 | 51.13715 | 13.77663 | 711 ft | 5 kts | 41° |
| 2026-04-22 17:42 | 51.13729 | 13.77682 | 712 ft | 0 kts | 42° |
| 2026-04-22 17:43 | 51.13742 | 13.77702 | 713 ft | 8 kts | 40° |
| 2026-04-22 17:43 | 51.13777 | 13.77722 | 711 ft | 5 kts | 1° |
| 2026-04-22 17:43 | 51.13804 | 13.77697 | 714 ft | 7 kts | 317° |
| 2026-04-22 17:44 | 51.13854 | 13.77602 | 711 ft | 10 kts | 310° |
| 2026-04-22 17:44 | 51.13903 | 13.77512 | 713 ft | 9 kts | 310° |
| 2026-04-22 17:44 | 51.13912 | 13.77466 | 713 ft | 4 kts | 258° |
| 2026-04-22 17:44 | 51.13901 | 13.77443 | 714 ft | 0 kts | 224° |
| 2026-04-22 17:45 | 51.13884 | 13.77417 | 712 ft | 25 kts | 222° |
| 2026-04-22 17:46 | 51.13525 | 13.76923 | 711 ft | 107 kts | 221° |
| 2026-04-22 17:46 | 51.12801 | 13.75918 | 779 ft | 160 kts | 223° |
| 2026-04-22 17:46 | 51.11996 | 13.74725 | 1545 ft | 158 kts | 226° |
| 2026-04-22 17:46 | 51.11178 | 13.73527 | 2325 ft | 161 kts | 228° |
| 2026-04-22 17:47 | 51.10309 | 13.72259 | 2801 ft | 180 kts | 227° |
| 2026-04-22 17:47 | 51.09335 | 13.70844 | 3217 ft | 200 kts | 227° |
| 2026-04-22 17:47 | 51.08243 | 13.69289 | 3577 ft | 224 kts | 226° |
| 2026-04-22 17:47 | 51.07021 | 13.67566 | 4003 ft | 250 kts | 225° |
| 2026-04-22 17:48 | 51.06079 | 13.66363 | 4397 ft | 266 kts | 219° |
| 2026-04-22 17:48 | 51.03958 | 13.64154 | 5544 ft | 279 kts | 208° |
| 2026-04-22 17:48 | 51.02052 | 13.63502 | 6493 ft | 287 kts | 175° |
| 2026-04-22 17:48 | 51.00172 | 13.64486 | 7381 ft | 288 kts | 143° |
| 2026-04-22 17:49 | 50.98877 | 13.66832 | 8242 ft | 284 kts | 110° |
| 2026-04-22 17:49 | 50.98475 | 13.68794 | 8860 ft | 281 kts | 97° |
| 2026-04-22 17:49 | 50.98228 | 13.71868 | 9828 ft | 281 kts | 91° |
| 2026-04-22 17:49 | 50.98000 | 13.76031 | 10740 ft | 297 kts | 87° |
| 2026-04-22 17:50 | 50.98044 | 13.78285 | 10977 ft | 310 kts | 82° |
| 2026-04-22 17:50 | 50.98113 | 13.83046 | 11440 ft | 340 kts | 90° |
| 2026-04-22 17:50 | 50.97961 | 13.85594 | 11871 ft | 348 kts | 94° |
| 2026-04-22 17:50 | 50.97589 | 13.89428 | 12609 ft | 355 kts | 96° |
| 2026-04-22 17:51 | 50.97122 | 13.93279 | 13067 ft | 356 kts | 97° |
| 2026-04-22 17:51 | 50.96666 | 13.97141 | 13229 ft | 356 kts | 97° |
| 2026-04-22 17:51 | 50.96228 | 14.01013 | 13317 ft | 359 kts | 96° |
| 2026-04-22 17:51 | 50.95804 | 14.04901 | 14249 ft | 357 kts | 95° |
| 2026-04-22 17:52 | 50.95419 | 14.08811 | 14903 ft | 362 kts | 95° |
| 2026-04-22 17:52 | 50.95047 | 14.12827 | 15626 ft | 365 kts | 94° |
| 2026-04-22 17:52 | 50.94703 | 14.16722 | 16363 ft | 366 kts | 94° |
| 2026-04-22 17:52 | 50.94344 | 14.20780 | 17121 ft | 368 kts | 95° |
| 2026-04-22 17:53 | 50.93978 | 14.24804 | 17826 ft | 371 kts | 95° |
| 2026-04-22 17:53 | 50.93574 | 14.28854 | 18554 ft | 374 kts | 100° |
| 2026-04-22 17:53 | 50.92495 | 14.32608 | 19099 ft | 388 kts | 122° |
| 2026-04-22 17:53 | 50.90798 | 14.36032 | 19785 ft | 390 kts | 123° |
| 2026-04-22 17:54 | 50.89285 | 14.39514 | 20402 ft | 390 kts | 118° |
| 2026-04-22 17:54 | 50.87869 | 14.43172 | 21075 ft | 389 kts | 117° |
| 2026-04-22 17:54 | 50.86489 | 14.46873 | 21698 ft | 391 kts | 117° |
| 2026-04-22 17:54 | 50.85097 | 14.50571 | 22300 ft | 393 kts | 117° |
| 2026-04-22 17:55 | 50.83665 | 14.54268 | 22890 ft | 395 kts | 118° |
| 2026-04-22 17:55 | 50.82195 | 14.57954 | 23454 ft | 397 kts | 118° |
| 2026-04-22 17:55 | 50.80692 | 14.61634 | 23977 ft | 399 kts | 119° |
| 2026-04-22 17:55 | 50.79167 | 14.65316 | 24431 ft | 401 kts | 119° |
| 2026-04-22 17:56 | 50.77634 | 14.68994 | 24887 ft | 402 kts | 119° |
| 2026-04-22 17:56 | 50.76093 | 14.72689 | 25331 ft | 403 kts | 119° |
| 2026-04-22 17:56 | 50.74551 | 14.76397 | 25776 ft | 404 kts | 119° |
| 2026-04-22 17:56 | 50.73010 | 14.80120 | 26199 ft | 405 kts | 119° |
| 2026-04-22 17:57 | 50.71469 | 14.83851 | 26612 ft | 406 kts | 119° |
| 2026-04-22 17:57 | 50.69916 | 14.87611 | 27028 ft | 408 kts | 119° |
| 2026-04-22 17:57 | 50.68374 | 14.91337 | 27424 ft | 409 kts | 119° |
| 2026-04-22 17:57 | 50.66816 | 14.95097 | 27807 ft | 410 kts | 119° |
| 2026-04-22 17:58 | 50.65250 | 14.98865 | 28196 ft | 411 kts | 119° |
| 2026-04-22 17:58 | 50.63699 | 15.02590 | 28559 ft | 412 kts | 119° |
| 2026-04-22 17:58 | 50.62103 | 15.06416 | 28907 ft | 414 kts | 119° |
| 2026-04-22 17:58 | 50.60519 | 15.10205 | 29244 ft | 415 kts | 119° |
| 2026-04-22 17:59 | 50.58949 | 15.13950 | 29563 ft | 416 kts | 119° |
| 2026-04-22 17:59 | 50.57331 | 15.17803 | 29859 ft | 417 kts | 119° |
| 2026-04-22 17:59 | 50.55755 | 15.21551 | 30132 ft | 417 kts | 119° |
| 2026-04-22 17:59 | 50.54155 | 15.25351 | 30464 ft | 416 kts | 119° |
| 2026-04-22 18:00 | 50.53075 | 15.27913 | 30676 ft | 415 kts | 119° |
| 2026-04-22 18:00 | 50.50965 | 15.32914 | 31057 ft | 414 kts | 119° |
| 2026-04-22 18:00 | 50.49372 | 15.36687 | 31331 ft | 414 kts | 119° |
| 2026-04-22 18:00 | 50.47778 | 15.40458 | 31602 ft | 414 kts | 118° |
| 2026-04-22 18:01 | 50.46186 | 15.44219 | 31880 ft | 414 kts | 118° |
| 2026-04-22 18:01 | 50.44592 | 15.47983 | 32160 ft | 414 kts | 118° |
| 2026-04-22 18:01 | 50.42995 | 15.51746 | 32447 ft | 414 kts | 118° |
| 2026-04-22 18:01 | 50.41399 | 15.55508 | 32729 ft | 414 kts | 118° |
| 2026-04-22 18:02 | 50.39801 | 15.59266 | 33031 ft | 414 kts | 118° |
| 2026-04-22 18:02 | 50.38202 | 15.63009 | 33342 ft | 414 kts | 118° |
| 2026-04-22 18:02 | 50.36597 | 15.66756 | 33635 ft | 414 kts | 118° |
| 2026-04-22 18:02 | 50.34993 | 15.70501 | 33922 ft | 414 kts | 118° |
| 2026-04-22 18:03 | 50.33387 | 15.74244 | 34201 ft | 414 kts | 118° |
| 2026-04-22 18:03 | 50.31786 | 15.77982 | 34437 ft | 414 kts | 118° |
| 2026-04-22 18:03 | 50.30177 | 15.81735 | 34664 ft | 416 kts | 118° |
| 2026-04-22 18:03 | 50.28560 | 15.85499 | 34870 ft | 418 kts | 118° |
| 2026-04-22 18:04 | 50.26938 | 15.89266 | 35062 ft | 419 kts | 118° |
| 2026-04-22 18:04 | 50.25302 | 15.93053 | 35182 ft | 421 kts | 119° |
| 2026-04-22 18:04 | 50.23659 | 15.96850 | 35222 ft | 422 kts | 119° |
| 2026-04-22 18:05 | 50.20386 | 16.04399 | 35219 ft | 422 kts | 119° |
| 2026-04-22 18:05 | 50.17072 | 16.12035 | 35218 ft | 423 kts | 119° |
| 2026-04-22 18:06 | 50.13765 | 16.19620 | 35219 ft | 423 kts | 119° |
| 2026-04-22 18:06 | 50.10461 | 16.27189 | 35222 ft | 423 kts | 119° |
| 2026-04-22 18:07 | 50.07170 | 16.34704 | 35211 ft | 422 kts | 119° |
| 2026-04-22 18:07 | 50.03853 | 16.42246 | 35216 ft | 423 kts | 119° |
| 2026-04-22 18:08 | 50.00528 | 16.49791 | 35220 ft | 423 kts | 119° |
| 2026-04-22 18:08 | 49.97211 | 16.57327 | 35206 ft | 423 kts | 119° |
| 2026-04-22 18:09 | 49.93879 | 16.64858 | 35210 ft | 423 kts | 119° |
| 2026-04-22 18:09 | 49.90531 | 16.72371 | 35206 ft | 423 kts | 119° |
| 2026-04-22 18:10 | 49.87184 | 16.79871 | 35203 ft | 423 kts | 119° |
| 2026-04-22 18:10 | 49.83842 | 16.87369 | 35204 ft | 423 kts | 119° |
| 2026-04-22 18:11 | 49.80488 | 16.94868 | 35205 ft | 423 kts | 119° |
| 2026-04-22 18:11 | 49.77125 | 17.02348 | 35203 ft | 424 kts | 120° |
| 2026-04-22 18:12 | 49.73749 | 17.09829 | 35204 ft | 424 kts | 120° |
| 2026-04-22 18:12 | 49.70937 | 17.16052 | 35199 ft | 424 kts | 120° |
| 2026-04-22 18:13 | 49.67011 | 17.24733 | 35200 ft | 425 kts | 120° |
| 2026-04-22 18:13 | 49.63619 | 17.32204 | 35196 ft | 425 kts | 120° |
| 2026-04-22 18:14 | 49.60675 | 17.39982 | 35197 ft | 417 kts | 109° |
| 2026-04-22 18:14 | 49.58363 | 17.48196 | 35194 ft | 418 kts | 109° |
| 2026-04-22 18:15 | 49.56047 | 17.56399 | 35192 ft | 418 kts | 109° |
| 2026-04-22 18:15 | 49.53716 | 17.64605 | 35198 ft | 418 kts | 109° |
| 2026-04-22 18:16 | 49.51374 | 17.72795 | 35193 ft | 418 kts | 109° |
| 2026-04-22 18:16 | 49.49027 | 17.80991 | 35189 ft | 418 kts | 109° |
| 2026-04-22 18:17 | 49.46685 | 17.89177 | 35192 ft | 418 kts | 109° |
| 2026-04-22 18:17 | 49.44323 | 17.97362 | 35188 ft | 419 kts | 109° |
| 2026-04-22 18:18 | 49.41955 | 18.05532 | 35187 ft | 419 kts | 109° |
| 2026-04-22 18:18 | 49.39577 | 18.13712 | 35190 ft | 419 kts | 109° |
| 2026-04-22 18:19 | 49.37205 | 18.21877 | 35194 ft | 419 kts | 109° |
| 2026-04-22 18:19 | 49.34841 | 18.29998 | 35184 ft | 420 kts | 109° |
| 2026-04-22 18:20 | 49.32453 | 18.38158 | 35183 ft | 420 kts | 109° |
| 2026-04-22 18:20 | 49.30055 | 18.46324 | 35179 ft | 420 kts | 109° |
| 2026-04-22 18:21 | 49.27647 | 18.54475 | 35182 ft | 420 kts | 109° |
| 2026-04-22 18:21 | 49.25232 | 18.62622 | 35182 ft | 421 kts | 110° |
| 2026-04-22 18:22 | 49.22810 | 18.70777 | 35182 ft | 421 kts | 109° |
| 2026-04-22 18:22 | 49.20395 | 18.78926 | 35181 ft | 421 kts | 110° |
| 2026-04-22 18:23 | 49.17959 | 18.87073 | 35182 ft | 421 kts | 110° |
| 2026-04-22 18:23 | 49.15514 | 18.95205 | 35077 ft | 422 kts | 110° |
| 2026-04-22 18:24 | 49.13065 | 19.03339 | 34599 ft | 420 kts | 110° |
| 2026-04-22 18:24 | 49.11843 | 19.07388 | 34370 ft | 419 kts | 110° |
| 2026-04-22 18:24 | 49.09409 | 19.15435 | 33841 ft | 416 kts | 109° |
| 2026-04-22 18:25 | 49.08193 | 19.19446 | 32891 ft | 417 kts | 109° |
| 2026-04-22 18:25 | 49.06973 | 19.23462 | 31945 ft | 417 kts | 109° |
| 2026-04-22 18:25 | 49.05753 | 19.27465 | 30981 ft | 415 kts | 109° |
| 2026-04-22 18:26 | 49.03341 | 19.35383 | 28796 ft | 413 kts | 109° |
| 2026-04-22 18:26 | 49.02130 | 19.39353 | 27731 ft | 413 kts | 109° |
| 2026-04-22 18:26 | 49.00931 | 19.43272 | 27112 ft | 404 kts | 110° |
| 2026-04-22 18:26 | 48.99745 | 19.47124 | 26407 ft | 399 kts | 110° |
| 2026-04-22 18:27 | 48.98573 | 19.50932 | 25717 ft | 395 kts | 110° |
| 2026-04-22 18:27 | 48.97413 | 19.54701 | 25033 ft | 391 kts | 110° |
| 2026-04-22 18:27 | 48.96263 | 19.58435 | 24355 ft | 389 kts | 110° |
| 2026-04-22 18:27 | 48.95118 | 19.62156 | 23685 ft | 387 kts | 110° |
| 2026-04-22 18:28 | 48.93977 | 19.65857 | 22964 ft | 385 kts | 110° |
| 2026-04-22 18:28 | 48.92844 | 19.69522 | 22347 ft | 382 kts | 110° |
| 2026-04-22 18:28 | 48.91718 | 19.73162 | 21734 ft | 379 kts | 110° |
| 2026-04-22 18:28 | 48.90600 | 19.76777 | 21163 ft | 376 kts | 110° |
| 2026-04-22 18:29 | 48.89493 | 19.80355 | 20604 ft | 374 kts | 110° |
| 2026-04-22 18:29 | 48.88393 | 19.83888 | 19978 ft | 374 kts | 111° |
| 2026-04-22 18:29 | 48.87259 | 19.87485 | 19446 ft | 372 kts | 111° |
| 2026-04-22 18:29 | 48.86148 | 19.91011 | 18936 ft | 368 kts | 111° |
| 2026-04-22 18:30 | 48.85073 | 19.94458 | 18447 ft | 365 kts | 111° |
| 2026-04-22 18:30 | 48.82921 | 20.01370 | 17412 ft | 358 kts | 111° |
| 2026-04-22 18:30 | 48.81863 | 20.04765 | 16934 ft | 355 kts | 111° |
| 2026-04-22 18:31 | 48.80808 | 20.08129 | 16466 ft | 351 kts | 111° |
| 2026-04-22 18:31 | 48.79753 | 20.11482 | 15801 ft | 354 kts | 111° |
| 2026-04-22 18:31 | 48.78687 | 20.14861 | 15259 ft | 353 kts | 111° |
| 2026-04-22 18:31 | 48.77633 | 20.18184 | 14904 ft | 347 kts | 112° |
| 2026-04-22 18:32 | 48.76580 | 20.21488 | 14274 ft | 349 kts | 112° |
| 2026-04-22 18:32 | 48.75526 | 20.24791 | 13761 ft | 346 kts | 112° |
| 2026-04-22 18:32 | 48.74481 | 20.28051 | 13205 ft | 344 kts | 112° |
| 2026-04-22 18:32 | 48.73439 | 20.31319 | 12598 ft | 344 kts | 112° |
| 2026-04-22 18:33 | 48.72407 | 20.34583 | 12036 ft | 343 kts | 112° |
| 2026-04-22 18:33 | 48.71385 | 20.37839 | 11449 ft | 342 kts | 113° |
| 2026-04-22 18:33 | 48.70365 | 20.41085 | 10863 ft | 342 kts | 113° |
| 2026-04-22 18:33 | 48.69354 | 20.44276 | 10645 ft | 330 kts | 114° |
| 2026-04-22 18:34 | 48.68385 | 20.47308 | 10458 ft | 319 kts | 114° |
| 2026-04-22 18:34 | 48.67430 | 20.50268 | 10327 ft | 307 kts | 114° |
| 2026-04-22 18:34 | 48.66516 | 20.53109 | 10169 ft | 296 kts | 114° |
| 2026-04-22 18:34 | 48.65632 | 20.55870 | 10081 ft | 287 kts | 114° |
| 2026-04-22 18:35 | 48.64777 | 20.58522 | 10028 ft | 273 kts | 114° |
| 2026-04-22 18:35 | 48.63951 | 20.61087 | 10069 ft | 272 kts | 114° |
| 2026-04-22 18:35 | 48.63129 | 20.63655 | 10075 ft | 271 kts | 114° |
| 2026-04-22 18:35 | 48.62306 | 20.66231 | 10045 ft | 272 kts | 114° |
| 2026-04-22 18:36 | 48.61483 | 20.68804 | 10048 ft | 272 kts | 114° |
| 2026-04-22 18:36 | 48.60690 | 20.71260 | 10044 ft | 271 kts | 114° |
| 2026-04-22 18:36 | 48.59863 | 20.73795 | 9646 ft | 270 kts | 114° |
| 2026-04-22 18:36 | 48.59029 | 20.76348 | 9235 ft | 270 kts | 114° |
| 2026-04-22 18:37 | 48.58208 | 20.78874 | 8786 ft | 267 kts | 114° |
| 2026-04-22 18:37 | 48.57398 | 20.81388 | 8279 ft | 267 kts | 113° |
| 2026-04-22 18:37 | 48.56864 | 20.83055 | 7933 ft | 264 kts | 113° |
| 2026-04-22 18:37 | 48.55803 | 20.86362 | 7161 ft | 260 kts | 113° |
| 2026-04-22 18:38 | 48.55021 | 20.88778 | 6574 ft | 259 kts | 113° |
| 2026-04-22 18:38 | 48.54218 | 20.91221 | 6162 ft | 258 kts | 113° |
| 2026-04-22 18:38 | 48.53411 | 20.93635 | 5760 ft | 257 kts | 114° |
| 2026-04-22 18:39 | 48.51823 | 20.98322 | 4960 ft | 240 kts | 113° |
| 2026-04-22 18:39 | 48.51076 | 21.00502 | 4633 ft | 230 kts | 114° |
| 2026-04-22 18:39 | 48.50341 | 21.02635 | 4184 ft | 228 kts | 113° |
| 2026-04-22 18:39 | 48.49611 | 21.04745 | 3773 ft | 227 kts | 114° |
| 2026-04-22 18:40 | 48.48878 | 21.06856 | 3509 ft | 223 kts | 114° |
| 2026-04-22 18:40 | 48.48168 | 21.08879 | 3498 ft | 216 kts | 114° |
| 2026-04-22 18:40 | 48.47624 | 21.10877 | 3499 ft | 196 kts | 97° |
| 2026-04-22 18:40 | 48.47508 | 21.12823 | 3584 ft | 183 kts | 81° |
| 2026-04-22 18:41 | 48.47755 | 21.14682 | 3547 ft | 179 kts | 65° |
| 2026-04-22 18:41 | 48.48325 | 21.16295 | 3544 ft | 171 kts | 49° |
| 2026-04-22 18:41 | 48.49131 | 21.17546 | 3520 ft | 164 kts | 34° |
| 2026-04-22 18:41 | 48.50095 | 21.18394 | 3510 ft | 159 kts | 20° |
| 2026-04-22 18:42 | 48.51167 | 21.18829 | 3489 ft | 159 kts | 11° |
| 2026-04-22 18:42 | 48.51877 | 21.19068 | 3409 ft | 158 kts | 12° |
| 2026-04-22 18:42 | 48.52933 | 21.19453 | 3212 ft | 155 kts | 12° |
| 2026-04-22 18:42 | 48.53960 | 21.19820 | 3000 ft | 147 kts | 12° |
| 2026-04-22 18:43 | 48.54925 | 21.20154 | 2793 ft | 137 kts | 11° |
| 2026-04-22 18:43 | 48.55827 | 21.20468 | 2651 ft | 131 kts | 12° |
| 2026-04-22 18:43 | 48.56721 | 21.20781 | 2467 ft | 133 kts | 12° |
| 2026-04-22 18:43 | 48.57622 | 21.21100 | 2275 ft | 132 kts | 11° |
| 2026-04-22 18:44 | 48.58510 | 21.21404 | 2086 ft | 130 kts | 11° |
| 2026-04-22 18:44 | 48.59382 | 21.21706 | 1909 ft | 127 kts | 11° |
| 2026-04-22 18:44 | 48.60236 | 21.22004 | 1740 ft | 126 kts | 11° |
| 2026-04-22 18:44 | 48.61109 | 21.22308 | 1574 ft | 131 kts | 12° |
| 2026-04-22 18:45 | 48.62011 | 21.22620 | 1385 ft | 134 kts | 13° |
| 2026-04-22 18:45 | 48.62920 | 21.22938 | 1186 ft | 134 kts | 12° |
| 2026-04-22 18:45 | 48.63817 | 21.23250 | 1008 ft | 131 kts | 13° |
| 2026-04-22 18:45 | 48.64696 | 21.23557 | 841 ft | 129 kts | 12° |
| 2026-04-22 18:46 | 48.65546 | 21.23857 | 755 ft | 116 kts | 12° |
| 2026-04-22 18:46 | 48.66189 | 21.24077 | 756 ft | 76 kts | 13° |
| 2026-04-22 18:46 | 48.66646 | 21.24237 | 759 ft | 59 kts | 13° |
| 2026-04-22 18:46 | 48.66999 | 21.24361 | 758 ft | 32 kts | 14° |
| 2026-04-22 18:47 | 48.67142 | 21.24411 | 760 ft | 11 kts | 14° |
| 2026-04-22 18:47 | 48.67206 | 21.24416 | 755 ft | 9 kts | 339° |
| 2026-04-22 18:47 | 48.67244 | 21.24328 | 756 ft | 5 kts | 282° |
| 2026-04-22 18:47 | 48.67250 | 21.24278 | 755 ft | 5 kts | 281° |
| 2026-04-22 18:48 | 48.67256 | 21.24234 | 757 ft | 4 kts | 281° |
| 2026-04-22 18:48 | 48.67255 | 21.24196 | 757 ft | 3 kts | 249° |
| 2026-04-22 18:48 | 48.67226 | 21.24168 | 756 ft | 6 kts | 199° |
| 2026-04-22 18:48 | 48.67186 | 21.24150 | 757 ft | 6 kts | 196° |
| 2026-04-22 18:49 | 48.67169 | 21.24118 | 753 ft | 3 kts | 263° |
| 2026-04-22 18:49 | 48.67174 | 21.24085 | 756 ft | 3 kts | 282° |
| 2026-04-22 18:49 | 48.67181 | 21.24041 | 755 ft | 5 kts | 283° |
| 2026-04-22 18:49 | 48.67186 | 21.24008 | 757 ft | 3 kts | 284° |
| 2026-04-22 18:50 | 48.67190 | 21.23985 | 755 ft | 2 kts | 285° |
| 2026-04-22 18:50 | 48.67204 | 21.23968 | 753 ft | 4 kts | 338° |
| 2026-04-22 18:50 | 48.67228 | 21.23971 | 756 ft | 3 kts | 9° |
| 2026-04-22 18:50 | 48.67242 | 21.23976 | 757 ft | 1 kts | 14° |